CFFBE CYZR-CYZR
Flight info
| Callsign | CFFBE |
|---|---|
| Flight time | N/A |
| Altitude | 3000 |
| Route | DCT |
| Aircraft | C650 |
Departure
| Time | 2026-04-25 00:57 |
|---|---|
| Airport | Chris Hadfield Airport (CYZR) |
Arrival
| Time | N/A |
|---|---|
| Airport | Chris Hadfield Airport (CYZR) |
| Time | Latitude | Longitude | Altitude | Speed | Heading |
|---|---|---|---|---|---|
| 2026-04-25 00:57 | 43.13544 | -82.27616 | 2964 ft | 239 kts | 341° |
| 2026-04-25 00:57 | 43.15143 | -82.28278 | 2963 ft | 239 kts | 342° |
| 2026-04-25 00:58 | 43.16687 | -82.28921 | 2956 ft | 239 kts | 341° |
| 2026-04-25 00:58 | 43.18317 | -82.29228 | 2982 ft | 241 kts | 7° |
| 2026-04-25 00:58 | 43.19830 | -82.28284 | 2973 ft | 238 kts | 45° |
| 2026-04-25 00:58 | 43.20634 | -82.26399 | 2962 ft | 232 kts | 82° |
| 2026-04-25 00:59 | 43.20482 | -82.24271 | 2943 ft | 224 kts | 120° |
| 2026-04-25 00:59 | 43.19439 | -82.22756 | 2955 ft | 219 kts | 156° |
| 2026-04-25 00:59 | 43.17975 | -82.22244 | 2960 ft | 219 kts | 171° |
| 2026-04-25 00:59 | 43.16472 | -82.21914 | 2956 ft | 219 kts | 171° |
| 2026-04-25 01:00 | 43.14964 | -82.21567 | 2970 ft | 220 kts | 172° |
| 2026-04-25 01:00 | 43.13441 | -82.21231 | 2974 ft | 220 kts | 172° |
| 2026-04-25 01:00 | 43.11971 | -82.20765 | 2961 ft | 221 kts | 155° |
| 2026-04-25 01:00 | 43.10816 | -82.19292 | 3028 ft | 242 kts | 124° |
| 2026-04-25 01:01 | 43.09935 | -82.17203 | 3689 ft | 258 kts | 122° |
| 2026-04-25 01:01 | 43.09061 | -82.15134 | 3966 ft | 247 kts | 121° |
| 2026-04-25 01:01 | 43.08236 | -82.13113 | 3980 ft | 242 kts | 123° |
| 2026-04-25 01:01 | 43.07415 | -82.11120 | 3960 ft | 239 kts | 122° |
| 2026-04-25 01:02 | 43.06594 | -82.09162 | 3948 ft | 237 kts | 122° |
| 2026-04-25 01:02 | 43.05765 | -82.07233 | 3938 ft | 237 kts | 122° |
| 2026-04-25 01:02 | 43.04928 | -82.05255 | 3953 ft | 238 kts | 122° |
| 2026-04-25 01:02 | 43.04123 | -82.03311 | 3950 ft | 238 kts | 122° |
| 2026-04-25 01:03 | 43.03316 | -82.01344 | 3955 ft | 237 kts | 121° |
| 2026-04-25 01:03 | 43.02425 | -81.99470 | 3939 ft | 234 kts | 131° |
| 2026-04-25 01:03 | 43.01597 | -81.97553 | 3934 ft | 236 kts | 105° |
| 2026-04-25 01:03 | 43.01647 | -81.95316 | 3949 ft | 241 kts | 70° |
| 2026-04-25 01:04 | 43.02637 | -81.93501 | 3957 ft | 242 kts | 33° |
| 2026-04-25 01:04 | 43.04195 | -81.92784 | 3958 ft | 238 kts | 359° |
| 2026-04-25 01:04 | 43.05815 | -81.93120 | 3955 ft | 238 kts | 338° |
| 2026-04-25 01:04 | 43.07271 | -81.94171 | 3955 ft | 236 kts | 319° |
| 2026-04-25 01:05 | 43.08377 | -81.95806 | 3961 ft | 233 kts | 300° |
| 2026-04-25 01:05 | 43.09029 | -81.97785 | 3971 ft | 225 kts | 283° |
| 2026-04-25 01:05 | 43.09450 | -81.99837 | 3986 ft | 220 kts | 285° |
| 2026-04-25 01:05 | 43.09858 | -82.01823 | 3965 ft | 220 kts | 282° |
| 2026-04-25 01:06 | 43.10272 | -82.03840 | 3939 ft | 219 kts | 283° |
| 2026-04-25 01:06 | 43.10680 | -82.05834 | 3946 ft | 218 kts | 283° |
| 2026-04-25 01:06 | 43.11090 | -82.07831 | 3960 ft | 220 kts | 283° |
| 2026-04-25 01:06 | 43.11499 | -82.09837 | 3944 ft | 218 kts | 283° |
| 2026-04-25 01:07 | 43.11911 | -82.11847 | 3936 ft | 220 kts | 283° |
| 2026-04-25 01:07 | 43.12324 | -82.13854 | 3953 ft | 218 kts | 284° |
| 2026-04-25 01:07 | 43.12733 | -82.15865 | 3958 ft | 219 kts | 282° |
| 2026-04-25 01:07 | 43.13402 | -82.17698 | 3949 ft | 222 kts | 311° |
| 2026-04-25 01:08 | 43.14778 | -82.18711 | 3957 ft | 229 kts | 350° |
| 2026-04-25 01:08 | 43.16326 | -82.18386 | 3948 ft | 231 kts | 29° |
| 2026-04-25 01:08 | 43.17459 | -82.16867 | 3956 ft | 232 kts | 62° |
| 2026-04-25 01:08 | 43.18204 | -82.15006 | 3974 ft | 232 kts | 63° |
| 2026-04-25 01:09 | 43.18971 | -82.13056 | 3965 ft | 233 kts | 62° |
| 2026-04-25 01:09 | 43.19745 | -82.11112 | 3969 ft | 233 kts | 62° |
| 2026-04-25 01:09 | 43.20514 | -82.09165 | 3976 ft | 234 kts | 63° |
| 2026-04-25 01:09 | 43.21288 | -82.07192 | 3976 ft | 232 kts | 62° |
| 2026-04-25 01:10 | 43.22064 | -82.05253 | 3977 ft | 232 kts | 62° |
| 2026-04-25 01:10 | 43.22846 | -82.03328 | 3960 ft | 234 kts | 62° |
| 2026-04-25 01:10 | 43.23635 | -82.01386 | 3945 ft | 232 kts | 64° |
| 2026-04-25 01:10 | 43.24441 | -81.99467 | 3960 ft | 233 kts | 56° |
| 2026-04-25 01:11 | 43.25706 | -81.98093 | 3961 ft | 237 kts | 15° |
| 2026-04-25 01:11 | 43.27397 | -81.98214 | 4509 ft | 258 kts | 336° |
| 2026-04-25 01:11 | 43.28871 | -81.99490 | 4929 ft | 244 kts | 313° |
| 2026-04-25 01:11 | 43.29788 | -82.01328 | 4971 ft | 228 kts | 290° |
| 2026-04-25 01:12 | 43.30088 | -82.03387 | 4961 ft | 219 kts | 268° |
| 2026-04-25 01:12 | 43.29841 | -82.05402 | 4962 ft | 215 kts | 249° |
| 2026-04-25 01:12 | 43.29184 | -82.07256 | 4968 ft | 214 kts | 242° |
| 2026-04-25 01:12 | 43.28459 | -82.09038 | 4966 ft | 216 kts | 242° |
| 2026-04-25 01:13 | 43.27742 | -82.10826 | 4961 ft | 214 kts | 241° |
| 2026-04-25 01:13 | 43.27024 | -82.12611 | 4964 ft | 214 kts | 242° |
| 2026-04-25 01:13 | 43.26307 | -82.14387 | 4965 ft | 215 kts | 241° |
| 2026-04-25 01:13 | 43.25577 | -82.16193 | 4969 ft | 215 kts | 242° |
| 2026-04-25 01:14 | 43.24855 | -82.17988 | 4968 ft | 216 kts | 242° |
| 2026-04-25 01:14 | 43.24124 | -82.19801 | 4954 ft | 216 kts | 242° |
| 2026-04-25 01:14 | 43.23403 | -82.21590 | 4961 ft | 215 kts | 242° |
| 2026-04-25 01:14 | 43.22680 | -82.23379 | 4953 ft | 215 kts | 243° |
| 2026-04-25 01:15 | 43.21956 | -82.25171 | 4961 ft | 215 kts | 241° |
| 2026-04-25 01:15 | 43.21238 | -82.26947 | 4947 ft | 215 kts | 241° |
| 2026-04-25 01:15 | 43.20518 | -82.28732 | 4945 ft | 213 kts | 242° |
| 2026-04-25 01:15 | 43.19800 | -82.30503 | 4950 ft | 213 kts | 242° |
| 2026-04-25 01:16 | 43.19076 | -82.32282 | 4949 ft | 212 kts | 243° |
| 2026-04-25 01:16 | 43.18358 | -82.34056 | 4941 ft | 214 kts | 242° |
| 2026-04-25 01:16 | 43.17636 | -82.35834 | 4932 ft | 214 kts | 242° |
| 2026-04-25 01:16 | 43.16914 | -82.37618 | 4945 ft | 214 kts | 242° |
| 2026-04-25 01:17 | 43.16447 | -82.39513 | 4862 ft | 210 kts | 265° |
| 2026-04-25 01:17 | 43.16730 | -82.41494 | 4445 ft | 216 kts | 296° |
| 2026-04-25 01:17 | 43.17762 | -82.42982 | 4021 ft | 224 kts | 329° |
| 2026-04-25 01:17 | 43.19291 | -82.43409 | 3671 ft | 231 kts | 8° |
| 2026-04-25 01:18 | 43.20695 | -82.42457 | 3397 ft | 229 kts | 44° |
| 2026-04-25 01:18 | 43.21787 | -82.40871 | 2987 ft | 232 kts | 50° |
| 2026-04-25 01:18 | 43.22829 | -82.39258 | 2957 ft | 220 kts | 56° |
| 2026-04-25 01:18 | 43.23294 | -82.37305 | 2943 ft | 216 kts | 98° |
| 2026-04-25 01:19 | 43.22686 | -82.35510 | 2949 ft | 209 kts | 141° |
| 2026-04-25 01:19 | 43.21378 | -82.34830 | 2947 ft | 207 kts | 186° |
| 2026-04-25 01:19 | 43.19971 | -82.35268 | 2953 ft | 207 kts | 200° |
| 2026-04-25 01:19 | 43.18648 | -82.36042 | 2957 ft | 209 kts | 206° |
| 2026-04-25 01:20 | 43.17414 | -82.37079 | 2948 ft | 208 kts | 216° |
| 2026-04-25 01:20 | 43.16312 | -82.38357 | 2956 ft | 209 kts | 224° |
| 2026-04-25 01:20 | 43.15300 | -82.39812 | 2958 ft | 209 kts | 226° |
| 2026-04-25 01:20 | 43.14315 | -82.41245 | 2906 ft | 203 kts | 227° |
| 2026-04-25 01:21 | 43.13358 | -82.42632 | 2690 ft | 198 kts | 225° |
| 2026-04-25 01:21 | 43.12350 | -82.43785 | 2302 ft | 184 kts | 206° |
| 2026-04-25 01:21 | 43.11177 | -82.44107 | 1965 ft | 164 kts | 175° |
| 2026-04-25 01:21 | 43.10102 | -82.43674 | 1857 ft | 162 kts | 153° |
| 2026-04-25 01:22 | 43.09224 | -82.42785 | 1868 ft | 148 kts | 139° |
| 2026-04-25 01:22 | 43.08536 | -82.41885 | 1909 ft | 131 kts | 138° |
| 2026-04-25 01:22 | 43.07889 | -82.41051 | 1871 ft | 125 kts | 139° |
| 2026-04-25 01:22 | 43.07259 | -82.40246 | 1872 ft | 122 kts | 139° |
| 2026-04-25 01:23 | 43.06651 | -82.39471 | 1908 ft | 118 kts | 139° |
| 2026-04-25 01:23 | 43.06032 | -82.38680 | 1923 ft | 122 kts | 139° |
| 2026-04-25 01:23 | 43.05416 | -82.37894 | 1893 ft | 121 kts | 139° |
| 2026-04-25 01:23 | 43.04801 | -82.37106 | 1763 ft | 123 kts | 139° |
| 2026-04-25 01:24 | 43.04182 | -82.36314 | 1595 ft | 121 kts | 139° |
| 2026-04-25 01:24 | 43.03657 | -82.35650 | 1469 ft | 121 kts | 139° |
| 2026-04-25 01:24 | 43.03042 | -82.34862 | 1303 ft | 122 kts | 138° |
| 2026-04-25 01:24 | 43.02421 | -82.34063 | 1155 ft | 122 kts | 138° |
| 2026-04-25 01:25 | 43.01799 | -82.33266 | 976 ft | 123 kts | 138° |
| 2026-04-25 01:25 | 43.01173 | -82.32465 | 821 ft | 124 kts | 138° |
| 2026-04-25 01:25 | 43.00520 | -82.31616 | 949 ft | 140 kts | 138° |
| 2026-04-25 01:25 | 42.99785 | -82.30699 | 1597 ft | 162 kts | 139° |
| 2026-04-25 01:26 | 42.98875 | -82.29525 | 2218 ft | 198 kts | 135° |
| 2026-04-25 01:26 | 42.98299 | -82.27994 | 3009 ft | 190 kts | 107° |
| 2026-04-25 01:26 | 42.98005 | -82.26018 | 3600 ft | 226 kts | 102° |
| 2026-04-25 01:26 | 42.97708 | -82.23865 | 3949 ft | 234 kts | 102° |
| 2026-04-25 01:27 | 42.97409 | -82.21664 | 3984 ft | 234 kts | 102° |
| 2026-04-25 01:27 | 42.97120 | -82.19516 | 3979 ft | 233 kts | 102° |
| 2026-04-25 01:27 | 42.96829 | -82.17323 | 3977 ft | 232 kts | 102° |
| 2026-04-25 01:28 | 42.96251 | -82.13024 | 3976 ft | 231 kts | 102° |
| 2026-04-25 01:28 | 42.95954 | -82.10850 | 3972 ft | 232 kts | 101° |
| 2026-04-25 01:28 | 42.95546 | -82.08671 | 3550 ft | 245 kts | 108° |
| 2026-04-25 01:28 | 42.95011 | -82.06441 | 3058 ft | 248 kts | 112° |
| 2026-04-25 01:29 | 42.94368 | -82.04286 | 2743 ft | 244 kts | 115° |
| 2026-04-25 01:29 | 42.93821 | -82.02295 | 3130 ft | 208 kts | 105° |
| 2026-04-25 01:29 | 42.93536 | -82.00378 | 2909 ft | 205 kts | 100° |
| 2026-04-25 01:29 | 42.93273 | -81.98466 | 2613 ft | 204 kts | 102° |
| 2026-04-25 01:30 | 42.93026 | -81.96594 | 2466 ft | 198 kts | 102° |